sensor_id;sensor_type;location;lat;lon;timestamp;temperature;humidity
41644;DHT22;44236;48.098;11.582;2023-10-09T00:02:13;21.30;58.20
41644;DHT22;44236;48.098;11.582;2023-10-09T00:04:40;21.30;58.30
41644;DHT22;44236;48.098;11.582;2023-10-09T00:07:17;21.30;58.20
41644;DHT22;44236;48.098;11.582;2023-10-09T00:09:43;21.40;58.40
41644;DHT22;44236;48.098;11.582;2023-10-09T00:12:15;21.40;58.50
41644;DHT22;44236;48.098;11.582;2023-10-09T00:14:42;21.30;58.80
41644;DHT22;44236;48.098;11.582;2023-10-09T00:17:22;21.30;58.40
41644;DHT22;44236;48.098;11.582;2023-10-09T00:19:48;21.40;58.30
41644;DHT22;44236;48.098;11.582;2023-10-09T00:22:15;21.40;58.70
41644;DHT22;44236;48.098;11.582;2023-10-09T00:24:50;21.40;58.70
41644;DHT22;44236;48.098;11.582;2023-10-09T00:27:17;21.40;59.40
41644;DHT22;44236;48.098;11.582;2023-10-09T00:29:46;21.40;59.30
41644;DHT22;44236;48.098;11.582;2023-10-09T00:32:14;21.40;58.80
41644;DHT22;44236;48.098;11.582;2023-10-09T00:34:52;21.40;59.80
41644;DHT22;44236;48.098;11.582;2023-10-09T00:37:18;21.30;59.20
41644;DHT22;44236;48.098;11.582;2023-10-09T00:39:49;21.40;59.60
41644;DHT22;44236;48.098;11.582;2023-10-09T00:42:21;21.40;59.40
41644;DHT22;44236;48.098;11.582;2023-10-09T00:44:54;21.40;59.10
41644;DHT22;44236;48.098;11.582;2023-10-09T00:47:19;21.40;59.80
41644;DHT22;44236;48.098;11.582;2023-10-09T00:49:59;21.40;59.80
41644;DHT22;44236;48.098;11.582;2023-10-09T00:52:33;21.40;60.10
41644;DHT22;44236;48.098;11.582;2023-10-09T00:55:10;21.40;60.10
41644;DHT22;44236;48.098;11.582;2023-10-09T00:57:44;21.30;59.90
41644;DHT22;44236;48.098;11.582;2023-10-09T01:00:23;21.40;60.60
41644;DHT22;44236;48.098;11.582;2023-10-09T01:03:02;21.40;60.00
41644;DHT22;44236;48.098;11.582;2023-10-09T01:05:58;21.40;60.00
41644;DHT22;44236;48.098;11.582;2023-10-09T01:08:39;21.40;60.10
41644;DHT22;44236;48.098;11.582;2023-10-09T01:11:05;21.30;60.10
41644;DHT22;44236;48.098;11.582;2023-10-09T01:13:45;21.40;60.40
41644;DHT22;44236;48.098;11.582;2023-10-09T01:16:13;21.30;60.10
41644;DHT22;44236;48.098;11.582;2023-10-09T01:18:46;21.30;60.00
41644;DHT22;44236;48.098;11.582;2023-10-09T01:21:18;21.30;60.40
41644;DHT22;44236;48.098;11.582;2023-10-09T01:23:46;21.30;60.30
41644;DHT22;44236;48.098;11.582;2023-10-09T01:29:06;21.30;60.30
41644;DHT22;44236;48.098;11.582;2023-10-09T01:31:36;21.40;60.00
41644;DHT22;44236;48.098;11.582;2023-10-09T01:34:03;21.40;60.20
41644;DHT22;44236;48.098;11.582;2023-10-09T01:36:36;21.30;60.30
41644;DHT22;44236;48.098;11.582;2023-10-09T01:39:04;21.30;59.90
41644;DHT22;44236;48.098;11.582;2023-10-09T01:41:52;21.30;60.20
41644;DHT22;44236;48.098;11.582;2023-10-09T01:44:25;21.30;60.20
41644;DHT22;44236;48.098;11.582;2023-10-09T01:47:05;21.30;60.20
41644;DHT22;44236;48.098;11.582;2023-10-09T01:49:36;21.30;60.30
41644;DHT22;44236;48.098;11.582;2023-10-09T01:52:07;21.30;60.30
41644;DHT22;44236;48.098;11.582;2023-10-09T01:54:38;21.30;60.40
41644;DHT22;44236;48.098;11.582;2023-10-09T01:57:06;21.30;60.30
41644;DHT22;44236;48.098;11.582;2023-10-09T01:59:35;21.30;60.40
41644;DHT22;44236;48.098;11.582;2023-10-09T02:02:04;21.30;60.50
41644;DHT22;44236;48.098;11.582;2023-10-09T02:04:38;21.30;60.40
41644;DHT22;44236;48.098;11.582;2023-10-09T02:07:06;21.30;60.40
41644;DHT22;44236;48.098;11.582;2023-10-09T02:09:35;21.30;60.30
41644;DHT22;44236;48.098;11.582;2023-10-09T02:12:01;21.30;60.60
41644;DHT22;44236;48.098;11.582;2023-10-09T02:14:28;21.40;60.50
41644;DHT22;44236;48.098;11.582;2023-10-09T02:16:55;21.30;60.30
41644;DHT22;44236;48.098;11.582;2023-10-09T02:19:34;21.30;60.60
41644;DHT22;44236;48.098;11.582;2023-10-09T02:22:01;21.30;60.80
41644;DHT22;44236;48.098;11.582;2023-10-09T02:24:39;21.30;60.70
41644;DHT22;44236;48.098;11.582;2023-10-09T02:27:15;21.30;60.60
41644;DHT22;44236;48.098;11.582;2023-10-09T02:30:10;21.30;60.70
41644;DHT22;44236;48.098;11.582;2023-10-09T02:32:45;21.30;60.80
41644;DHT22;44236;48.098;11.582;2023-10-09T02:35:17;21.30;61.00
41644;DHT22;44236;48.098;11.582;2023-10-09T02:38:02;21.30;60.50
41644;DHT22;44236;48.098;11.582;2023-10-09T02:40:32;21.30;60.70
41644;DHT22;44236;48.098;11.582;2023-10-09T02:43:06;21.30;60.70
41644;DHT22;44236;48.098;11.582;2023-10-09T02:45:32;21.30;60.60
41644;DHT22;44236;48.098;11.582;2023-10-09T02:48:03;21.30;60.70
41644;DHT22;44236;48.098;11.582;2023-10-09T02:50:36;21.30;60.70
41644;DHT22;44236;48.098;11.582;2023-10-09T02:53:03;21.30;60.80
41644;DHT22;44236;48.098;11.582;2023-10-09T02:55:34;21.30;60.60
41644;DHT22;44236;48.098;11.582;2023-10-09T02:58:04;21.30;60.80
41644;DHT22;44236;48.098;11.582;2023-10-09T03:00:39;21.20;60.60
41644;DHT22;44236;48.098;11.582;2023-10-09T03:03:09;21.20;60.70
41644;DHT22;44236;48.098;11.582;2023-10-09T03:05:35;21.30;60.80
41644;DHT22;44236;48.098;11.582;2023-10-09T03:08:07;21.30;60.90
41644;DHT22;44236;48.098;11.582;2023-10-09T03:10:34;21.30;60.80
41644;DHT22;44236;48.098;11.582;2023-10-09T03:12:59;21.20;60.80
41644;DHT22;44236;48.098;11.582;2023-10-09T03:15:31;21.20;60.80
41644;DHT22;44236;48.098;11.582;2023-10-09T03:18:04;21.20;60.70
41644;DHT22;44236;48.098;11.582;2023-10-09T03:20:30;21.20;60.80
41644;DHT22;44236;48.098;11.582;2023-10-09T03:22:56;21.20;60.70
41644;DHT22;44236;48.098;11.582;2023-10-09T03:25:23;21.30;60.70
41644;DHT22;44236;48.098;11.582;2023-10-09T03:27:50;21.20;60.50
41644;DHT22;44236;48.098;11.582;2023-10-09T03:30:17;21.20;60.50
41644;DHT22;44236;48.098;11.582;2023-10-09T03:32:48;21.30;60.60
41644;DHT22;44236;48.098;11.582;2023-10-09T03:35:20;21.20;60.60
41644;DHT22;44236;48.098;11.582;2023-10-09T03:38:01;21.20;60.50
41644;DHT22;44236;48.098;11.582;2023-10-09T03:40:45;21.20;60.60
41644;DHT22;44236;48.098;11.582;2023-10-09T03:43:14;21.20;60.70
41644;DHT22;44236;48.098;11.582;2023-10-09T03:45:40;21.20;60.70
41644;DHT22;44236;48.098;11.582;2023-10-09T03:48:18;21.20;60.70
41644;DHT22;44236;48.098;11.582;2023-10-09T03:50:51;21.20;60.70
41644;DHT22;44236;48.098;11.582;2023-10-09T03:53:33;21.20;60.50
41644;DHT22;44236;48.098;11.582;2023-10-09T03:56:02;21.20;60.60
41644;DHT22;44236;48.098;11.582;2023-10-09T03:58:31;21.20;60.40
41644;DHT22;44236;48.098;11.582;2023-10-09T04:00:59;21.20;60.60
41644;DHT22;44236;48.098;11.582;2023-10-09T04:03:24;21.20;60.80
41644;DHT22;44236;48.098;11.582;2023-10-09T04:05:50;21.20;60.50
41644;DHT22;44236;48.098;11.582;2023-10-09T04:08:18;21.20;60.60
41644;DHT22;44236;48.098;11.582;2023-10-09T04:10:55;21.20;60.60
41644;DHT22;44236;48.098;11.582;2023-10-09T04:13:27;21.20;60.40
41644;DHT22;44236;48.098;11.582;2023-10-09T04:15:59;21.20;60.50
41644;DHT22;44236;48.098;11.582;2023-10-09T04:18:28;21.20;60.40
41644;DHT22;44236;48.098;11.582;2023-10-09T04:20:58;21.20;60.20
41644;DHT22;44236;48.098;11.582;2023-10-09T04:23:44;21.20;60.20
41644;DHT22;44236;48.098;11.582;2023-10-09T04:26:34;21.20;60.40
41644;DHT22;44236;48.098;11.582;2023-10-09T04:29:01;21.20;60.40
41644;DHT22;44236;48.098;11.582;2023-10-09T04:31:28;21.20;60.50
41644;DHT22;44236;48.098;11.582;2023-10-09T04:33:58;21.20;60.50
41644;DHT22;44236;48.098;11.582;2023-10-09T04:36:42;21.10;60.20
41644;DHT22;44236;48.098;11.582;2023-10-09T04:39:23;21.20;60.20
41644;DHT22;44236;48.098;11.582;2023-10-09T04:41:55;21.20;60.20
41644;DHT22;44236;48.098;11.582;2023-10-09T04:44:41;21.10;60.20
41644;DHT22;44236;48.098;11.582;2023-10-09T04:47:26;21.10;60.20
41644;DHT22;44236;48.098;11.582;2023-10-09T04:50:10;21.10;60.30
41644;DHT22;44236;48.098;11.582;2023-10-09T04:52:59;21.10;60.00
41644;DHT22;44236;48.098;11.582;2023-10-09T04:55:40;21.10;59.90
41644;DHT22;44236;48.098;11.582;2023-10-09T04:58:10;21.10;60.50
41644;DHT22;44236;48.098;11.582;2023-10-09T05:00:44;21.10;60.00
41644;DHT22;44236;48.098;11.582;2023-10-09T05:03:12;21.10;60.00
41644;DHT22;44236;48.098;11.582;2023-10-09T05:05:50;21.10;60.00
41644;DHT22;44236;48.098;11.582;2023-10-09T05:08:24;21.10;59.90
41644;DHT22;44236;48.098;11.582;2023-10-09T05:10:54;21.10;60.10
41644;DHT22;44236;48.098;11.582;2023-10-09T05:13:41;21.10;59.70
41644;DHT22;44236;48.098;11.582;2023-10-09T05:18:53;21.10;59.90
41644;DHT22;44236;48.098;11.582;2023-10-09T05:21:26;21.10;60.70
41644;DHT22;44236;48.098;11.582;2023-10-09T05:23:57;21.10;60.00
41644;DHT22;44236;48.098;11.582;2023-10-09T05:26:51;21.10;60.00
41644;DHT22;44236;48.098;11.582;2023-10-09T05:32:05;21.10;58.30
41644;DHT22;44236;48.098;11.582;2023-10-09T05:34:44;21.20;57.60
41644;DHT22;44236;48.098;11.582;2023-10-09T05:37:27;21.20;58.40
41644;DHT22;44236;48.098;11.582;2023-10-09T05:42:28;21.30;57.70
41644;DHT22;44236;48.098;11.582;2023-10-09T05:45:17;21.30;57.60
41644;DHT22;44236;48.098;11.582;2023-10-09T05:47:53;21.30;57.70
41644;DHT22;44236;48.098;11.582;2023-10-09T05:50:22;21.30;57.40
41644;DHT22;44236;48.098;11.582;2023-10-09T05:52:49;21.30;57.40
41644;DHT22;44236;48.098;11.582;2023-10-09T05:55:18;21.40;57.40
41644;DHT22;44236;48.098;11.582;2023-10-09T05:57:50;21.40;57.70
41644;DHT22;44236;48.098;11.582;2023-10-09T06:00:34;21.40;58.10
41644;DHT22;44236;48.098;11.582;2023-10-09T06:03:19;21.40;58.40
41644;DHT22;44236;48.098;11.582;2023-10-09T06:05:55;21.30;58.30
41644;DHT22;44236;48.098;11.582;2023-10-09T06:08:28;21.30;58.70
41644;DHT22;44236;48.098;11.582;2023-10-09T06:11:15;21.30;58.90
41644;DHT22;44236;48.098;11.582;2023-10-09T06:14:00;21.30;58.80
41644;DHT22;44236;48.098;11.582;2023-10-09T06:16:40;21.30;59.10
41644;DHT22;44236;48.098;11.582;2023-10-09T06:19:25;21.30;58.60
41644;DHT22;44236;48.098;11.582;2023-10-09T06:21:56;21.30;58.80
41644;DHT22;44236;48.098;11.582;2023-10-09T06:24:41;21.30;58.40
41644;DHT22;44236;48.098;11.582;2023-10-09T06:27:16;21.30;58.30
41644;DHT22;44236;48.098;11.582;2023-10-09T06:29:58;21.40;59.30
41644;DHT22;44236;48.098;11.582;2023-10-09T06:32:56;21.40;58.60
41644;DHT22;44236;48.098;11.582;2023-10-09T06:35:47;21.20;57.10
41644;DHT22;44236;48.098;11.582;2023-10-09T06:38:20;21.00;56.20
41644;DHT22;44236;48.098;11.582;2023-10-09T06:40:51;20.80;56.30
41644;DHT22;44236;48.098;11.582;2023-10-09T06:43:20;20.80;57.80
41644;DHT22;44236;48.098;11.582;2023-10-09T06:45:46;20.80;58.40
41644;DHT22;44236;48.098;11.582;2023-10-09T06:48:26;20.90;58.20
41644;DHT22;44236;48.098;11.582;2023-10-09T06:51:05;21.00;58.10
41644;DHT22;44236;48.098;11.582;2023-10-09T06:54:03;21.10;58.10
41644;DHT22;44236;48.098;11.582;2023-10-09T06:56:32;21.10;57.90
41644;DHT22;44236;48.098;11.582;2023-10-09T06:59:02;21.20;58.00
41644;DHT22;44236;48.098;11.582;2023-10-09T07:01:41;21.20;57.90
41644;DHT22;44236;48.098;11.582;2023-10-09T07:04:12;21.20;57.90
41644;DHT22;44236;48.098;11.582;2023-10-09T07:06:50;21.20;57.70
41644;DHT22;44236;48.098;11.582;2023-10-09T07:09:16;21.20;57.70
41644;DHT22;44236;48.098;11.582;2023-10-09T07:11:49;21.20;57.80
41644;DHT22;44236;48.098;11.582;2023-10-09T07:14:18;21.20;57.60
41644;DHT22;44236;48.098;11.582;2023-10-09T07:16:57;21.30;57.70
41644;DHT22;44236;48.098;11.582;2023-10-09T07:19:24;21.30;57.70
41644;DHT22;44236;48.098;11.582;2023-10-09T07:22:11;21.30;57.60
41644;DHT22;44236;48.098;11.582;2023-10-09T07:27:21;21.30;57.70
41644;DHT22;44236;48.098;11.582;2023-10-09T07:30:08;21.30;57.50
41644;DHT22;44236;48.098;11.582;2023-10-09T07:33:03;21.40;57.70
41644;DHT22;44236;48.098;11.582;2023-10-09T07:35:32;21.30;57.50
41644;DHT22;44236;48.098;11.582;2023-10-09T07:38:20;21.30;57.60
41644;DHT22;44236;48.098;11.582;2023-10-09T07:40:49;21.30;57.50
41644;DHT22;44236;48.098;11.582;2023-10-09T07:43:26;21.30;57.60
41644;DHT22;44236;48.098;11.582;2023-10-09T07:45:54;21.40;57.60
41644;DHT22;44236;48.098;11.582;2023-10-09T07:48:23;21.40;57.60
41644;DHT22;44236;48.098;11.582;2023-10-09T07:50:51;21.40;57.60
41644;DHT22;44236;48.098;11.582;2023-10-09T07:53:23;21.40;57.60
41644;DHT22;44236;48.098;11.582;2023-10-09T07:55:55;21.40;57.60
41644;DHT22;44236;48.098;11.582;2023-10-09T07:58:24;21.40;57.60
41644;DHT22;44236;48.098;11.582;2023-10-09T08:00:55;21.40;57.60
41644;DHT22;44236;48.098;11.582;2023-10-09T08:03:26;21.40;57.60
41644;DHT22;44236;48.098;11.582;2023-10-09T08:05:58;21.40;57.60
41644;DHT22;44236;48.098;11.582;2023-10-09T08:08:43;21.50;57.70
41644;DHT22;44236;48.098;11.582;2023-10-09T08:11:30;21.50;57.70
41644;DHT22;44236;48.098;11.582;2023-10-09T08:14:08;21.50;57.80
41644;DHT22;44236;48.098;11.582;2023-10-09T08:16:54;21.50;57.70
41644;DHT22;44236;48.098;11.582;2023-10-09T08:19:37;21.50;58.40
41644;DHT22;44236;48.098;11.582;2023-10-09T08:22:30;21.50;58.00
41644;DHT22;44236;48.098;11.582;2023-10-09T08:24:56;21.50;58.00
41644;DHT22;44236;48.098;11.582;2023-10-09T08:27:26;21.50;57.90
41644;DHT22;44236;48.098;11.582;2023-10-09T08:30:02;21.50;57.90
41644;DHT22;44236;48.098;11.582;2023-10-09T08:32:44;21.50;57.90
41644;DHT22;44236;48.098;11.582;2023-10-09T08:35:30;21.50;57.90
41644;DHT22;44236;48.098;11.582;2023-10-09T08:38:01;21.50;58.00
41644;DHT22;44236;48.098;11.582;2023-10-09T08:40:40;21.50;58.10
41644;DHT22;44236;48.098;11.582;2023-10-09T08:45:39;21.50;57.90
41644;DHT22;44236;48.098;11.582;2023-10-09T08:48:07;21.50;58.00
41644;DHT22;44236;48.098;11.582;2023-10-09T08:50:34;21.50;57.90
41644;DHT22;44236;48.098;11.582;2023-10-09T08:53:01;21.50;58.00
41644;DHT22;44236;48.098;11.582;2023-10-09T08:55:29;21.60;58.20
41644;DHT22;44236;48.098;11.582;2023-10-09T08:57:54;21.50;58.20
41644;DHT22;44236;48.098;11.582;2023-10-09T09:00:23;21.50;58.20
41644;DHT22;44236;48.098;11.582;2023-10-09T09:02:58;21.50;58.40
41644;DHT22;44236;48.098;11.582;2023-10-09T09:05:25;21.50;58.40
41644;DHT22;44236;48.098;11.582;2023-10-09T09:07:54;21.50;58.40
41644;DHT22;44236;48.098;11.582;2023-10-09T09:10:31;21.50;58.60
41644;DHT22;44236;48.098;11.582;2023-10-09T09:13:14;21.60;58.90
41644;DHT22;44236;48.098;11.582;2023-10-09T09:15:47;21.50;58.80
41644;DHT22;44236;48.098;11.582;2023-10-09T09:18:12;21.60;59.00
41644;DHT22;44236;48.098;11.582;2023-10-09T09:20:43;21.50;59.10
41644;DHT22;44236;48.098;11.582;2023-10-09T09:23:12;21.50;59.60
41644;DHT22;44236;48.098;11.582;2023-10-09T09:25:45;21.50;59.10
41644;DHT22;44236;48.098;11.582;2023-10-09T09:28:14;21.50;59.10
41644;DHT22;44236;48.098;11.582;2023-10-09T09:30:45;21.50;59.20
41644;DHT22;44236;48.098;11.582;2023-10-09T09:36:05;21.60;59.50
41644;DHT22;44236;48.098;11.582;2023-10-09T09:38:35;21.60;58.60
41644;DHT22;44236;48.098;11.582;2023-10-09T09:41:08;21.60;56.90
41644;DHT22;44236;48.098;11.582;2023-10-09T09:43:36;21.60;56.10
41644;DHT22;44236;48.098;11.582;2023-10-09T09:46:04;21.60;55.70
41644;DHT22;44236;48.098;11.582;2023-10-09T09:48:37;21.60;55.50
41644;DHT22;44236;48.098;11.582;2023-10-09T09:51:05;21.60;55.10
41644;DHT22;44236;48.098;11.582;2023-10-09T09:53:34;21.60;55.00
41644;DHT22;44236;48.098;11.582;2023-10-09T09:56:00;21.60;54.20
41644;DHT22;44236;48.098;11.582;2023-10-09T09:58:28;21.60;54.80
41644;DHT22;44236;48.098;11.582;2023-10-09T10:01:10;21.60;54.00
41644;DHT22;44236;48.098;11.582;2023-10-09T10:04:09;21.60;55.50
41644;DHT22;44236;48.098;11.582;2023-10-09T10:06:40;21.60;55.10
41644;DHT22;44236;48.098;11.582;2023-10-09T10:09:08;21.60;55.00
41644;DHT22;44236;48.098;11.582;2023-10-09T10:14:11;21.60;53.00
41644;DHT22;44236;48.098;11.582;2023-10-09T10:17:03;21.60;53.10
41644;DHT22;44236;48.098;11.582;2023-10-09T10:22:29;21.60;53.10
41644;DHT22;44236;48.098;11.582;2023-10-09T10:24:56;21.60;52.30
41644;DHT22;44236;48.098;11.582;2023-10-09T10:27:25;21.60;52.50
41644;DHT22;44236;48.098;11.582;2023-10-09T10:35:20;21.60;53.00
41644;DHT22;44236;48.098;11.582;2023-10-09T10:37:58;21.60;53.90
41644;DHT22;44236;48.098;11.582;2023-10-09T10:40:33;21.60;54.10
41644;DHT22;44236;48.098;11.582;2023-10-09T10:43:06;21.60;54.10
41644;DHT22;44236;48.098;11.582;2023-10-09T10:45:39;21.60;53.70
41644;DHT22;44236;48.098;11.582;2023-10-09T10:48:11;21.60;53.40
41644;DHT22;44236;48.098;11.582;2023-10-09T10:51:06;21.60;53.20
41644;DHT22;44236;48.098;11.582;2023-10-09T10:53:31;21.60;52.70
41644;DHT22;44236;48.098;11.582;2023-10-09T10:56:13;21.60;52.60
41644;DHT22;44236;48.098;11.582;2023-10-09T10:58:42;21.60;52.60
41644;DHT22;44236;48.098;11.582;2023-10-09T11:01:20;21.60;52.20
41644;DHT22;44236;48.098;11.582;2023-10-09T11:03:48;21.60;51.70
41644;DHT22;44236;48.098;11.582;2023-10-09T11:06:30;21.60;52.50
41644;DHT22;44236;48.098;11.582;2023-10-09T11:09:09;21.60;52.10
41644;DHT22;44236;48.098;11.582;2023-10-09T11:11:47;21.60;51.70
41644;DHT22;44236;48.098;11.582;2023-10-09T11:14:14;21.60;51.40
41644;DHT22;44236;48.098;11.582;2023-10-09T11:16:41;21.60;51.60
41644;DHT22;44236;48.098;11.582;2023-10-09T11:19:19;21.60;51.30
41644;DHT22;44236;48.098;11.582;2023-10-09T11:21:57;21.60;51.70
41644;DHT22;44236;48.098;11.582;2023-10-09T11:24:33;21.60;51.40
41644;DHT22;44236;48.098;11.582;2023-10-09T11:27:04;21.60;49.40
41644;DHT22;44236;48.098;11.582;2023-10-09T11:29:36;21.70;50.40
41644;DHT22;44236;48.098;11.582;2023-10-09T11:32:18;21.70;50.90
41644;DHT22;44236;48.098;11.582;2023-10-09T11:34:45;21.70;50.40
41644;DHT22;44236;48.098;11.582;2023-10-09T11:37:18;21.70;50.90
41644;DHT22;44236;48.098;11.582;2023-10-09T11:40:04;21.70;50.80
41644;DHT22;44236;48.098;11.582;2023-10-09T11:42:48;21.70;50.60
41644;DHT22;44236;48.098;11.582;2023-10-09T11:45:25;21.70;50.80
41644;DHT22;44236;48.098;11.582;2023-10-09T11:48:18;21.70;50.70
41644;DHT22;44236;48.098;11.582;2023-10-09T11:50:53;21.70;50.90
41644;DHT22;44236;48.098;11.582;2023-10-09T11:53:43;21.70;49.90
41644;DHT22;44236;48.098;11.582;2023-10-09T11:56:11;21.70;50.40
41644;DHT22;44236;48.098;11.582;2023-10-09T11:58:42;21.70;49.70
41644;DHT22;44236;48.098;11.582;2023-10-09T12:01:13;21.70;49.50
41644;DHT22;44236;48.098;11.582;2023-10-09T12:03:46;21.70;49.40
41644;DHT22;44236;48.098;11.582;2023-10-09T12:06:20;21.70;50.00
41644;DHT22;44236;48.098;11.582;2023-10-09T12:08:48;21.70;50.40
41644;DHT22;44236;48.098;11.582;2023-10-09T12:11:16;21.70;50.20
41644;DHT22;44236;48.098;11.582;2023-10-09T12:13:54;21.70;50.50
41644;DHT22;44236;48.098;11.582;2023-10-09T12:16:23;21.70;49.00
41644;DHT22;44236;48.098;11.582;2023-10-09T12:18:53;21.70;49.90
41644;DHT22;44236;48.098;11.582;2023-10-09T12:21:20;21.70;49.40
41644;DHT22;44236;48.098;11.582;2023-10-09T12:23:46;21.70;48.70
41644;DHT22;44236;48.098;11.582;2023-10-09T12:26:14;21.70;48.80
41644;DHT22;44236;48.098;11.582;2023-10-09T12:28:43;21.70;48.40
41644;DHT22;44236;48.098;11.582;2023-10-09T12:31:16;21.70;47.50
41644;DHT22;44236;48.098;11.582;2023-10-09T12:33:45;21.80;48.70
41644;DHT22;44236;48.098;11.582;2023-10-09T12:36:15;21.80;50.00
41644;DHT22;44236;48.098;11.582;2023-10-09T12:38:46;21.80;49.80
41644;DHT22;44236;48.098;11.582;2023-10-09T12:41:16;21.80;50.30
41644;DHT22;44236;48.098;11.582;2023-10-09T12:43:52;21.70;51.40
41644;DHT22;44236;48.098;11.582;2023-10-09T12:46:18;21.70;50.40
41644;DHT22;44236;48.098;11.582;2023-10-09T12:48:52;21.80;50.40
41644;DHT22;44236;48.098;11.582;2023-10-09T12:51:23;21.80;49.90
41644;DHT22;44236;48.098;11.582;2023-10-09T12:53:55;21.80;49.90
41644;DHT22;44236;48.098;11.582;2023-10-09T12:56:24;21.80;50.10
41644;DHT22;44236;48.098;11.582;2023-10-09T12:58:59;21.70;50.00
41644;DHT22;44236;48.098;11.582;2023-10-09T13:01:26;21.80;50.20
41644;DHT22;44236;48.098;11.582;2023-10-09T13:03:58;21.80;50.30
41644;DHT22;44236;48.098;11.582;2023-10-09T13:06:25;21.80;50.40
41644;DHT22;44236;48.098;11.582;2023-10-09T13:08:51;21.80;50.20
41644;DHT22;44236;48.098;11.582;2023-10-09T13:11:19;21.80;50.30
41644;DHT22;44236;48.098;11.582;2023-10-09T13:13:45;21.80;50.40
41644;DHT22;44236;48.098;11.582;2023-10-09T13:16:22;21.80;50.70
41644;DHT22;44236;48.098;11.582;2023-10-09T13:18:54;21.80;50.70
41644;DHT22;44236;48.098;11.582;2023-10-09T13:21:27;21.80;50.80
41644;DHT22;44236;48.098;11.582;2023-10-09T13:23:58;21.80;50.80
41644;DHT22;44236;48.098;11.582;2023-10-09T13:26:25;21.80;50.70
41644;DHT22;44236;48.098;11.582;2023-10-09T13:28:56;21.80;50.80
41644;DHT22;44236;48.098;11.582;2023-10-09T13:31:22;21.80;50.80
41644;DHT22;44236;48.098;11.582;2023-10-09T13:33:53;21.80;50.90
41644;DHT22;44236;48.098;11.582;2023-10-09T13:36:25;21.80;50.80
41644;DHT22;44236;48.098;11.582;2023-10-09T13:39:02;21.90;51.20
41644;DHT22;44236;48.098;11.582;2023-10-09T13:41:49;21.90;51.10
41644;DHT22;44236;48.098;11.582;2023-10-09T13:44:15;21.80;51.00
41644;DHT22;44236;48.098;11.582;2023-10-09T13:46:41;21.90;51.30
41644;DHT22;44236;48.098;11.582;2023-10-09T13:49:08;21.90;51.20
41644;DHT22;44236;48.098;11.582;2023-10-09T13:51:38;21.90;51.40
41644;DHT22;44236;48.098;11.582;2023-10-09T13:54:09;21.90;51.30
41644;DHT22;44236;48.098;11.582;2023-10-09T13:56:35;21.90;51.50
41644;DHT22;44236;48.098;11.582;2023-10-09T13:59:04;21.90;51.40
41644;DHT22;44236;48.098;11.582;2023-10-09T14:01:36;21.90;51.90
41644;DHT22;44236;48.098;11.582;2023-10-09T14:04:05;21.90;51.50
41644;DHT22;44236;48.098;11.582;2023-10-09T14:06:34;21.90;51.60
41644;DHT22;44236;48.098;11.582;2023-10-09T14:09:04;21.90;51.60
41644;DHT22;44236;48.098;11.582;2023-10-09T14:11:31;21.90;51.80
41644;DHT22;44236;48.098;11.582;2023-10-09T14:13:57;21.90;51.50
41644;DHT22;44236;48.098;11.582;2023-10-09T14:16:27;21.90;51.70
41644;DHT22;44236;48.098;11.582;2023-10-09T14:18:56;22.00;51.90
41644;DHT22;44236;48.098;11.582;2023-10-09T14:21:27;22.00;52.00
41644;DHT22;44236;48.098;11.582;2023-10-09T14:23:59;22.00;52.40
41644;DHT22;44236;48.098;11.582;2023-10-09T14:26:28;22.00;52.80
41644;DHT22;44236;48.098;11.582;2023-10-09T14:28:55;22.00;52.80
41644;DHT22;44236;48.098;11.582;2023-10-09T14:31:25;22.00;52.50
41644;DHT22;44236;48.098;11.582;2023-10-09T14:33:55;22.00;51.90
41644;DHT22;44236;48.098;11.582;2023-10-09T14:36:21;22.00;51.90
41644;DHT22;44236;48.098;11.582;2023-10-09T14:38:51;22.00;51.90
41644;DHT22;44236;48.098;11.582;2023-10-09T14:41:22;22.00;52.00
41644;DHT22;44236;48.098;11.582;2023-10-09T14:43:52;21.90;51.70
41644;DHT22;44236;48.098;11.582;2023-10-09T14:46:19;22.00;51.60
41644;DHT22;44236;48.098;11.582;2023-10-09T14:48:55;22.00;51.60
41644;DHT22;44236;48.098;11.582;2023-10-09T14:51:21;22.00;51.60
41644;DHT22;44236;48.098;11.582;2023-10-09T14:53:57;22.00;52.20
41644;DHT22;44236;48.098;11.582;2023-10-09T14:56:29;22.00;51.90
41644;DHT22;44236;48.098;11.582;2023-10-09T14:58:58;22.00;52.00
41644;DHT22;44236;48.098;11.582;2023-10-09T15:01:28;22.00;52.00
41644;DHT22;44236;48.098;11.582;2023-10-09T15:04:14;22.00;52.10
41644;DHT22;44236;48.098;11.582;2023-10-09T15:06:40;22.00;52.10
41644;DHT22;44236;48.098;11.582;2023-10-09T15:09:05;22.00;52.20
41644;DHT22;44236;48.098;11.582;2023-10-09T15:11:35;22.00;52.30
41644;DHT22;44236;48.098;11.582;2023-10-09T15:14:04;22.00;52.50
41644;DHT22;44236;48.098;11.582;2023-10-09T15:16:31;22.00;52.70
41644;DHT22;44236;48.098;11.582;2023-10-09T15:18:57;22.00;53.10
41644;DHT22;44236;48.098;11.582;2023-10-09T15:21:24;22.10;53.20
41644;DHT22;44236;48.098;11.582;2023-10-09T15:23:54;22.00;53.20
41644;DHT22;44236;48.098;11.582;2023-10-09T15:26:20;22.10;53.30
41644;DHT22;44236;48.098;11.582;2023-10-09T15:28:46;22.10;53.50
41644;DHT22;44236;48.098;11.582;2023-10-09T15:31:15;22.10;53.80
41644;DHT22;44236;48.098;11.582;2023-10-09T15:33:42;22.10;53.80
41644;DHT22;44236;48.098;11.582;2023-10-09T15:36:15;22.10;53.80
41644;DHT22;44236;48.098;11.582;2023-10-09T15:38:47;22.10;53.90
41644;DHT22;44236;48.098;11.582;2023-10-09T15:41:13;22.10;54.50
41644;DHT22;44236;48.098;11.582;2023-10-09T15:43:41;22.20;54.40
41644;DHT22;44236;48.098;11.582;2023-10-09T15:46:11;22.20;54.10
41644;DHT22;44236;48.098;11.582;2023-10-09T15:48:40;22.20;54.10
41644;DHT22;44236;48.098;11.582;2023-10-09T15:51:10;22.20;54.80
41644;DHT22;44236;48.098;11.582;2023-10-09T15:53:37;22.20;54.80
41644;DHT22;44236;48.098;11.582;2023-10-09T15:56:03;22.20;55.10
41644;DHT22;44236;48.098;11.582;2023-10-09T15:58:29;22.20;54.80
41644;DHT22;44236;48.098;11.582;2023-10-09T16:00:55;22.20;54.80
41644;DHT22;44236;48.098;11.582;2023-10-09T16:03:20;22.20;54.80
41644;DHT22;44236;48.098;11.582;2023-10-09T16:05:47;22.20;54.80
41644;DHT22;44236;48.098;11.582;2023-10-09T16:08:13;22.20;54.70
41644;DHT22;44236;48.098;11.582;2023-10-09T16:10:38;22.20;55.00
41644;DHT22;44236;48.098;11.582;2023-10-09T16:13:04;22.20;55.30
41644;DHT22;44236;48.098;11.582;2023-10-09T16:15:34;22.30;55.00
41644;DHT22;44236;48.098;11.582;2023-10-09T16:18:00;22.20;54.70
41644;DHT22;44236;48.098;11.582;2023-10-09T16:20:31;22.20;54.60